This is the latest recevied weather packets stored in our database for station/object K1BWE-1. If no packets are shown the sender has not sent any weather packets the latest 1 day(s).
| Time | Temp. | Humidity | Pressure | Rain* | Wind** | Luminosity | Snow |
|---|---|---|---|---|---|---|---|
| 1836274744 | 26.67° C | 56% | 1016.8 hPa | 0 mm | 0 m/s | 0 W/m² | - |
| 1836274442 | 26.67° C | 56% | 1016.6 hPa | 0 mm | 0 m/s | 0 W/m² | - |
| 1836274295 | 26.11° C | 56% | 1016.7 hPa | 0 mm | 0 m/s | 0 W/m² | - |
| 1836274140 | 26.67° C | 55% | 1016.7 hPa | 0 mm | 0 m/s | 0 W/m² | - |
| 1778048691 | 13.89° C | 50% | 1015.6 hPa | 0 mm | 0 m/s | 0 W/m² | - |
| 1778048387 | 13.89° C | 56% | 1016 hPa | 0 mm | 0 m/s | 0 W/m² | - |
| 1778048084 | 13.89° C | 52% | 1015.9 hPa | 0 mm | 0 m/s | 0 W/m² | - |
| 1778047782 | 13.89° C | 52% | 1015.6 hPa | 0 mm | 0 m/s | 0 W/m² | - |
| 1778047480 | 14.44° C | 53% | 1015.9 hPa | 0 mm | 0 m/s | 0 W/m² | - |
| 1778047176 | 14.44° C | 51% | 1015.6 hPa | 0 mm | 0 m/s | 0 W/m² | - |
| 1778046874 | 14.44° C | 51% | 1015.8 hPa | 0 mm | 0 m/s | 0 W/m² | - |
| 1778046570 | 15° C | 53% | 1015.9 hPa | 0 mm | 0 m/s | 0 W/m² | - |
| 1778046267 | 15° C | 53% | 1015.9 hPa | 0 mm | 0 m/s | 0 W/m² | - |
| 1778045963 | 15° C | 56% | 1015.8 hPa | 0 mm | 0 m/s | 0 W/m² | - |
| 1778045662 | 14.44° C | 54% | 1015.8 hPa | 0 mm | 0.45 m/s, 229° | 0 W/m² | - |
| 1778045360 | 14.44° C | 57% | 1015.5 hPa | 0 mm | 0 m/s | 0 W/m² | - |
| 1778045058 | 14.44° C | 57% | 1015.5 hPa | 0 mm | 0 m/s | 0 W/m² | - |
| 1778044755 | 14.44° C | 56% | 1015.5 hPa | 0 mm | 0 m/s | 0 W/m² | - |
| 1778044452 | 14.44° C | 57% | 1015.5 hPa | 0 mm | 0 m/s | 0 W/m² | - |
| 1778044149 | 13.89° C | 63% | 1015.3 hPa | 0 mm | 0 m/s | 0 W/m² | - |
| 1778043846 | 14.44° C | 62% | 1015.4 hPa | 0 mm | 0 m/s | 0 W/m² | - |
| 1778043551 | 14.44° C | 62% | 1015.5 hPa | 0 mm | 0 m/s | 0 W/m² | - |
| 1778043240 | 14.44° C | 62% | 1015.3 hPa | 0 mm | 0 m/s | 0 W/m² | - |
| 1778042937 | 15° C | 60% | 1015.2 hPa | 0 mm | 0 m/s | 0 W/m² | - |
| 1778042635 | 15° C | 62% | 1015.1 hPa | 0 mm | 0 m/s | 0 W/m² | - |
* Rain latest hour (hover to see other rain measurements)
** Current wind speed in m/s (hover to see current wind gust speed)